CDT,Max TemperatureF,Mean TemperatureF,Min TemperatureF,Max Dew PointF,MeanDew PointF,Min DewpointF,Max Humidity, Mean Humidity, Min Humidity, Max Sea Level PressureIn, Mean Sea Level PressureIn, Min Sea Level PressureIn, Max VisibilityMiles, Mean VisibilityMiles, Min VisibilityMiles, Max Wind SpeedMPH, Mean Wind SpeedMPH, Max Gust SpeedMPH,PrecipitationIn, CloudCover, Events, WindDirDegrees
2012-10-1,64,52,37,46,37,28,81,53,30,30.02,29.98,29.88,10,10,7,18,8,25,0.00,0,Rain,318
2012-10-2,68,48,28,34,30,27,93,51,26,29.98,29.86,29.76,10,10,7,20,5,29,0.00,0,,184
2012-10-3,73,53,33,41,34,27,75,52,23,29.89,29.84,29.80,10,9,4,18,4,24,0.00,0,,60
2012-10-4,51,42,32,41,33,27,93,80,66,30.10,29.88,29.64,10,9,3,29,16,48,0.00,7,Rain-Snow,304
2012-10-5,37,32,28,27,25,23,86,78,60,30.18,30.11,30.07,10,10,10,24,17,33,0.00,8,Snow,299
2012-10-6,41,32,24,27,23,18,86,70,42,30.31,30.24,30.18,10,10,10,14,9,17,0.00,5,,313
2012-10-7,51,35,19,23,20,18,93,57,28,30.17,29.96,29.77,10,10,10,15,7,25,0.00,1,,215
2012-10-8,48,40,33,41,29,19,93,66,49,29.77,29.64,29.52,10,10,10,15,6,24,0.01,5,Rain,218
2012-10-9,37,32,26,34,28,21,93,76,70,29.97,29.80,29.67,10,10,4,21,9,30,0.00,6,Rain,280
2012-10-10,44,32,21,32,25,19,100,72,39,30.03,29.96,29.85,10,10,10,16,6,23,0.00,4,Rain,258
2012-10-11,41,31,21,32,24,18,93,71,42,30.38,30.15,29.87,10,10,10,16,9,21,0.00,2,,328
2012-10-12,48,32,15,21,16,12,93,57,27,30.39,30.22,29.89,10,10,10,21,6,29,0.00,1,,164
2012-10-13,62,50,39,43,36,18,81,58,32,29.88,29.73,29.65,10,10,7,16,9,21,0.00,3,,207
2012-10-14,55,45,35,39,34,30,93,73,44,29.91,29.84,29.77,10,10,7,15,6,20,0.00,4,,325
2012-10-15,57,39,21,37,32,21,100,70,47,29.92,29.82,29.61,10,8,0,14,4,20,0.00,4,Fog-Rain,167
2012-10-16,69,58,46,46,43,37,93,64,40,29.61,29.47,29.32,10,10,10,15,5,18,0.00,2,Rain,199
2012-10-17,51,45,39,46,43,37,100,90,71,29.32,29.18,29.08,10,7,1,18,7,25,0.27,7,Rain,235
2012-10-18,46,42,39,46,41,37,100,94,87,29.43,29.24,29.14,10,6,2,16,7,24,0.37,8,Rain,313
2012-10-19,44,42,39,43,39,37,100,92,87,29.73,29.63,29.44,10,9,4,21,11,29,0.02,8,Rain,333
2012-10-20,46,42,39,41,39,37,100,88,76,29.76,29.72,29.70,10,9,0,12,4,16,0.00,6,Fog-Rain,167
2012-10-21,53,45,37,45,42,37,100,83,67,29.97,29.82,29.73,10,9,3,12,5,,0.00,2,,64
2012-10-22,55,48,41,45,41,37,93,79,63,30.04,29.98,29.89,10,10,10,14,10,21,0.00,6,,57
2012-10-23,53,48,44,52,46,41,100,94,81,29.88,29.74,29.66,10,3,0,15,8,20,0.03,8,Fog-Rain-Thunderstorm,104
2012-10-24,53,44,33,52,40,34,100,90,81,29.93,29.87,29.75,10,8,4,15,9,18,0.00,7,Rain,317
2012-10-25,33,32,30,34,27,23,100,82,65,30.08,29.93,29.86,10,9,2,21,11,28,0.02,8,Rain-Snow,309
2012-10-26,35,32,28,25,19,16,80,61,44,30.28,30.23,30.09,10,10,10,26,12,34,0.00,8,,277
2012-10-27,35,27,19,21,19,16,93,68,44,30.31,30.27,30.24,10,10,10,8,3,,0.00,5,,238
2012-10-28,33,30,28,30,28,21,100,86,69,30.26,30.24,30.22,10,8,1,9,4,,0.01,8,Rain-Snow,119
2012-10-29,46,38,28,27,24,21,80,64,39,30.23,30.21,30.18,10,10,10,18,10,23,0.00,5,,127
2012-10-30,42,33,24,30,25,19,93,73,57,30.22,30.16,30.07,10,10,10,12,4,,0.00,4,,98
2012-10-31,50,36,21,34,27,19,93,71,43,30.08,29.99,29.92,10,10,10,10,1,,0.00,5,Rain,296